KIDA/IDA METAR and TAF weather

Enter ICAO airport designator
Station Type Date Time Source
KIDA METAR 2021/04/17 02:53 UTC NOAA

KIDA 170253Z AUTO 03007KT 10SM OVC110 06/M06 A3020 RMK AO2 SLP235 T00561056 53011


Station Type Date Time Source
KIDA Decoded METAR 2021/04/17 02:53 UTC NOAA

IDAHO FALLS REGIONAL AIRPORT, ID, United States (KIDA) 43-31N 112-04W 1453M
Apr 16, 2021 - 10:53 PM EDT / 2021.04.17 0253 UTC
Wind: from the NNE (030 degrees) at 8 MPH (7 KT):0
Visibility: 10 mile(s):0
Sky conditions: overcast
Temperature: 42.1 F (5.6 C)
Dew Point: 21.9 F (-5.6 C)
Relative Humidity: 44%
Pressure (altimeter): 30.2 in. Hg (1022 hPa)
Pressure tendency: 0.03 inches (1.1 hPa) higher than three hours ago
ob: KIDA 170253Z AUTO 03007KT 10SM OVC110 06/M06 A3020 RMK AO2 SLP235 T00561056 53011
cycle: 3

Station Type Date Time Source
KIDA TAF 2021/04/16 21:39 UTC NOAA

TAF
AMD KIDA 162037Z 1621/1718 03012G20KT P6SM BKN070
FM170300 02009KT P6SM FEW060

Example: see airport list